createdAt,value
2018-11-20T00:09:58.216Z,-0.40
2018-11-20T00:12:43.946Z,-0.34
2018-11-20T00:15:18.609Z,-0.31
2018-11-20T00:17:56.459Z,-0.46
2018-11-20T00:21:30.990Z,-0.51
2018-11-20T00:26:08.394Z,-0.38
2018-11-20T00:30:48.013Z,-0.32
2018-11-20T00:33:24.860Z,-0.34
2018-11-20T00:35:59.385Z,-0.29
2018-11-20T00:39:43.335Z,-0.25
2018-11-20T00:59:39.597Z,-0.14
2018-11-20T01:19:42.322Z,0.11
2018-11-20T01:23:20.511Z,0.08
2018-11-20T01:25:55.498Z,0.14
2018-11-20T01:46:29.093Z,0.21
2018-11-20T01:49:04.258Z,0.17
2018-11-20T02:09:08.435Z,0.20
2018-11-20T02:11:49.210Z,0.22
2018-11-20T02:35:53.301Z,0.05
2018-11-20T02:38:38.257Z,0.17
2018-11-20T02:42:11.595Z,-0.02
2018-11-20T02:44:52.377Z,0.12
2018-11-20T03:20:30.264Z,0.46
2018-11-20T03:23:05.489Z,0.40
2018-11-20T03:26:40.723Z,0.48
2018-11-20T03:30:30.113Z,0.58
2018-11-20T03:33:14.754Z,0.55
2018-11-20T03:35:49.698Z,0.62
2018-11-20T03:38:24.682Z,0.66
2018-11-20T03:41:08.782Z,0.74
2018-11-20T03:43:50.602Z,0.70
2018-11-20T03:46:42.827Z,0.65
2018-11-20T03:49:17.576Z,0.66
2018-11-20T03:53:56.187Z,0.68
2018-11-20T03:56:29.700Z,0.67
2018-11-20T03:59:04.842Z,0.69
2018-11-20T04:20:03.097Z,0.27
2018-11-20T04:23:10.093Z,0.28
2018-11-20T04:26:48.675Z,0.28
2018-11-20T04:29:57.257Z,0.22
2018-11-20T04:32:33.058Z,0.33
2018-11-20T04:35:11.432Z,0.39
2018-11-20T04:37:46.218Z,0.48
2018-11-20T04:40:21.088Z,0.46
2018-11-20T04:43:06.754Z,0.55
2018-11-20T04:47:50.740Z,0.61
2018-11-20T04:50:29.429Z,0.70
2018-11-20T04:53:04.485Z,0.61
2018-11-20T04:55:39.337Z,0.73
2018-11-20T05:15:51.537Z,1.07
2018-11-20T05:18:26.350Z,1.14
2018-11-20T05:21:02.170Z,1.19
2018-11-20T05:41:01.314Z,1.52
2018-11-20T05:43:42.225Z,1.55
2018-11-20T05:46:52.494Z,1.68
2018-11-20T05:49:28.970Z,1.81
2018-11-20T06:09:56.745Z,1.84
2018-11-20T06:12:30.632Z,1.94
2018-11-20T06:15:05.313Z,1.99
2018-11-20T06:17:48.700Z,1.95
2018-11-20T06:20:24.159Z,1.96
2018-11-20T06:23:29.804Z,2.10
2018-11-20T06:43:27.786Z,2.54
2018-11-20T06:46:04.513Z,2.67
2018-11-20T07:21:43.930Z,2.88
2018-11-20T07:24:21.229Z,2.95
2018-11-20T07:27:11.036Z,2.98
2018-11-20T07:29:45.903Z,3.06
2018-11-20T07:33:23.529Z,3.04
2018-11-20T07:35:58.358Z,3.12
2018-11-20T07:38:33.200Z,3.09
2018-11-20T07:41:07.975Z,3.07
2018-11-20T07:43:42.805Z,3.10
2018-11-20T07:46:17.641Z,3.10
2018-11-20T08:06:14.752Z,3.08
2018-11-20T08:09:04.616Z,3.14
2018-11-20T08:11:39.755Z,3.22
2018-11-20T08:14:21.146Z,3.21
2018-11-20T08:17:56.918Z,3.16
2018-11-20T08:20:32.657Z,3.13
2018-11-20T08:41:29.083Z,3.26
2018-11-20T08:44:03.815Z,3.33
2018-11-20T08:46:38.718Z,3.37
2018-11-20T09:06:36.877Z,3.45
2018-11-20T09:09:14.481Z,3.51
2018-11-20T09:13:56.988Z,3.53
2018-11-20T09:17:30.897Z,3.45
2018-11-20T09:20:21.222Z,3.44
2018-11-20T09:23:00.256Z,3.49
2018-11-20T09:27:37.888Z,3.48
2018-11-20T09:30:19.440Z,3.46
2018-11-20T09:34:57.781Z,3.44
2018-11-20T09:37:33.031Z,3.54
2018-11-20T09:40:25.505Z,3.55
2018-11-20T10:00:23.121Z,3.58
2018-11-20T10:02:57.874Z,3.59
2018-11-20T10:05:32.709Z,3.59
2018-11-20T10:08:07.205Z,3.63
2018-11-20T10:12:44.905Z,3.59
2018-11-20T10:17:27.271Z,3.72
2018-11-20T10:37:37.795Z,3.80
2018-11-20T10:40:27.477Z,3.88
2018-11-20T10:45:09.904Z,3.90
2018-11-20T10:47:44.893Z,3.88
2018-11-20T10:50:19.821Z,3.84
2018-11-20T10:52:54.551Z,3.88
2018-11-20T10:55:29.678Z,3.91
2018-11-20T10:58:10.465Z,3.98
2018-11-20T11:00:45.058Z,3.96
2018-11-20T11:03:23.456Z,3.89
2018-11-20T11:05:58.315Z,3.92
2018-11-20T11:08:33.117Z,3.92
2018-11-20T11:28:33.343Z,3.91
2018-11-20T11:33:26.815Z,4.03
2018-11-20T11:36:13.043Z,4.12
2018-11-20T11:56:09.144Z,4.19
2018-11-20T11:58:44.260Z,4.19
2018-11-20T12:01:19.031Z,4.23
